sensor_id;sensor_type;location;lat;lon;timestamp;P1;durP1;ratioP1;P2;durP2;ratioP2
4933;SDS011;2482;49.154;8.254;2023-09-19T00:00:48;4.23;;;1.40;;
4933;SDS011;2482;49.154;8.254;2023-09-19T00:03:16;9.17;;;1.47;;
4933;SDS011;2482;49.154;8.254;2023-09-19T00:05:43;7.23;;;1.50;;
4933;SDS011;2482;49.154;8.254;2023-09-19T00:08:11;6.73;;;1.40;;
4933;SDS011;2482;49.154;8.254;2023-09-19T00:10:42;7.50;;;1.77;;
4933;SDS011;2482;49.154;8.254;2023-09-19T00:13:10;3.67;;;1.60;;
4933;SDS011;2482;49.154;8.254;2023-09-19T00:15:43;3.50;;;1.33;;
4933;SDS011;2482;49.154;8.254;2023-09-19T00:18:17;5.70;;;2.07;;
4933;SDS011;2482;49.154;8.254;2023-09-19T00:20:49;4.70;;;1.90;;
4933;SDS011;2482;49.154;8.254;2023-09-19T00:23:18;4.33;;;1.60;;
4933;SDS011;2482;49.154;8.254;2023-09-19T00:25:46;2.37;;;1.60;;
4933;SDS011;2482;49.154;8.254;2023-09-19T00:28:13;4.93;;;2.30;;
4933;SDS011;2482;49.154;8.254;2023-09-19T00:30:44;4.30;;;1.40;;
4933;SDS011;2482;49.154;8.254;2023-09-19T00:33:17;6.30;;;2.10;;
4933;SDS011;2482;49.154;8.254;2023-09-19T00:35:48;3.73;;;1.60;;
4933;SDS011;2482;49.154;8.254;2023-09-19T00:38:20;6.50;;;1.97;;
4933;SDS011;2482;49.154;8.254;2023-09-19T00:40:51;7.73;;;1.70;;
4933;SDS011;2482;49.154;8.254;2023-09-19T00:43:18;3.07;;;1.43;;
4933;SDS011;2482;49.154;8.254;2023-09-19T00:45:46;4.20;;;1.70;;
4933;SDS011;2482;49.154;8.254;2023-09-19T00:48:17;5.83;;;1.80;;
4933;SDS011;2482;49.154;8.254;2023-09-19T00:50:51;4.00;;;1.53;;
4933;SDS011;2482;49.154;8.254;2023-09-19T00:53:21;3.37;;;1.60;;
4933;SDS011;2482;49.154;8.254;2023-09-19T00:55:50;9.03;;;2.50;;
4933;SDS011;2482;49.154;8.254;2023-09-19T00:58:18;2.70;;;1.53;;
4933;SDS011;2482;49.154;8.254;2023-09-19T01:00:47;4.50;;;1.60;;
4933;SDS011;2482;49.154;8.254;2023-09-19T01:03:15;6.33;;;1.90;;
4933;SDS011;2482;49.154;8.254;2023-09-19T01:05:45;5.37;;;1.97;;
4933;SDS011;2482;49.154;8.254;2023-09-19T01:08:12;2.53;;;1.57;;
4933;SDS011;2482;49.154;8.254;2023-09-19T01:10:48;5.87;;;1.97;;
4933;SDS011;2482;49.154;8.254;2023-09-19T01:28:20;2.30;;;1.57;;
4933;SDS011;2482;49.154;8.254;2023-09-19T01:31:06;4.73;;;1.70;;
4933;SDS011;2482;49.154;8.254;2023-09-19T01:34:11;5.00;;;1.80;;
4933;SDS011;2482;49.154;8.254;2023-09-19T01:36:33;3.03;;;1.37;;
4933;SDS011;2482;49.154;8.254;2023-09-19T01:39:05;4.87;;;1.97;;
4933;SDS011;2482;49.154;8.254;2023-09-19T01:41:51;2.60;;;1.60;;
4933;SDS011;2482;49.154;8.254;2023-09-19T01:45:04;5.13;;;1.60;;
4933;SDS011;2482;49.154;8.254;2023-09-19T01:53:07;4.43;;;2.00;;
4933;SDS011;2482;49.154;8.254;2023-09-19T01:55:51;4.57;;;1.40;;
4933;SDS011;2482;49.154;8.254;2023-09-19T01:58:21;10.03;;;1.67;;
4933;SDS011;2482;49.154;8.254;2023-09-19T02:01:00;6.30;;;1.67;;
4933;SDS011;2482;49.154;8.254;2023-09-19T02:03:29;3.30;;;1.80;;
4933;SDS011;2482;49.154;8.254;2023-09-19T02:05:58;3.37;;;1.60;;
4933;SDS011;2482;49.154;8.254;2023-09-19T02:08:25;9.73;;;1.87;;
4933;SDS011;2482;49.154;8.254;2023-09-19T02:10:52;3.20;;;1.50;;
4933;SDS011;2482;49.154;8.254;2023-09-19T02:13:20;3.70;;;1.60;;
4933;SDS011;2482;49.154;8.254;2023-09-19T02:15:51;2.50;;;1.60;;
4933;SDS011;2482;49.154;8.254;2023-09-19T02:18:18;3.20;;;1.50;;
4933;SDS011;2482;49.154;8.254;2023-09-19T02:20:46;3.27;;;1.77;;
4933;SDS011;2482;49.154;8.254;2023-09-19T02:23:13;8.73;;;2.07;;
4933;SDS011;2482;49.154;8.254;2023-09-19T02:25:42;4.40;;;1.53;;
4933;SDS011;2482;49.154;8.254;2023-09-19T02:28:09;2.40;;;1.40;;
4933;SDS011;2482;49.154;8.254;2023-09-19T02:30:36;3.30;;;1.23;;
4933;SDS011;2482;49.154;8.254;2023-09-19T02:33:03;3.30;;;1.40;;
4933;SDS011;2482;49.154;8.254;2023-09-19T02:35:30;5.90;;;1.53;;
4933;SDS011;2482;49.154;8.254;2023-09-19T02:38:02;3.07;;;1.47;;
4933;SDS011;2482;49.154;8.254;2023-09-19T02:40:33;3.23;;;1.40;;
4933;SDS011;2482;49.154;8.254;2023-09-19T02:43:02;4.90;;;1.60;;
4933;SDS011;2482;49.154;8.254;2023-09-19T02:45:31;6.73;;;1.80;;
4933;SDS011;2482;49.154;8.254;2023-09-19T02:47:58;7.03;;;1.97;;
4933;SDS011;2482;49.154;8.254;2023-09-19T02:50:25;3.73;;;1.50;;
4933;SDS011;2482;49.154;8.254;2023-09-19T02:52:52;3.40;;;1.50;;
4933;SDS011;2482;49.154;8.254;2023-09-19T02:55:19;5.93;;;1.63;;
4933;SDS011;2482;49.154;8.254;2023-09-19T02:57:49;2.20;;;1.60;;
4933;SDS011;2482;49.154;8.254;2023-09-19T03:00:23;7.13;;;1.90;;
4933;SDS011;2482;49.154;8.254;2023-09-19T03:02:52;3.17;;;1.50;;
4933;SDS011;2482;49.154;8.254;2023-09-19T03:05:22;3.23;;;1.30;;
4933;SDS011;2482;49.154;8.254;2023-09-19T03:07:50;3.60;;;1.80;;
4933;SDS011;2482;49.154;8.254;2023-09-19T03:10:18;5.03;;;1.60;;
4933;SDS011;2482;49.154;8.254;2023-09-19T03:12:46;4.60;;;1.60;;
4933;SDS011;2482;49.154;8.254;2023-09-19T03:15:15;3.53;;;1.50;;
4933;SDS011;2482;49.154;8.254;2023-09-19T03:17:43;3.53;;;1.87;;
4933;SDS011;2482;49.154;8.254;2023-09-19T03:20:12;3.40;;;1.93;;
4933;SDS011;2482;49.154;8.254;2023-09-19T03:22:40;3.60;;;1.30;;
4933;SDS011;2482;49.154;8.254;2023-09-19T03:25:07;4.67;;;1.57;;
4933;SDS011;2482;49.154;8.254;2023-09-19T03:27:35;3.63;;;1.60;;
4933;SDS011;2482;49.154;8.254;2023-09-19T03:30:02;4.47;;;1.60;;
4933;SDS011;2482;49.154;8.254;2023-09-19T03:32:38;2.20;;;1.53;;
4933;SDS011;2482;49.154;8.254;2023-09-19T03:35:16;3.70;;;1.40;;
4933;SDS011;2482;49.154;8.254;2023-09-19T03:37:44;1.87;;;1.70;;
4933;SDS011;2482;49.154;8.254;2023-09-19T03:40:11;3.73;;;1.70;;
4933;SDS011;2482;49.154;8.254;2023-09-19T03:42:39;8.93;;;2.00;;
4933;SDS011;2482;49.154;8.254;2023-09-19T03:45:07;3.50;;;1.60;;
4933;SDS011;2482;49.154;8.254;2023-09-19T03:47:39;2.27;;;1.77;;
4933;SDS011;2482;49.154;8.254;2023-09-19T03:50:07;19.90;;;2.57;;
4933;SDS011;2482;49.154;8.254;2023-09-19T03:52:37;3.77;;;1.40;;
4933;SDS011;2482;49.154;8.254;2023-09-19T03:55:05;2.80;;;1.60;;
4933;SDS011;2482;49.154;8.254;2023-09-19T03:57:32;3.20;;;1.87;;
4933;SDS011;2482;49.154;8.254;2023-09-19T04:00:02;4.90;;;1.83;;
4933;SDS011;2482;49.154;8.254;2023-09-19T04:02:42;6.80;;;1.90;;
4933;SDS011;2482;49.154;8.254;2023-09-19T04:05:09;6.47;;;2.03;;
4933;SDS011;2482;49.154;8.254;2023-09-19T04:07:37;7.10;;;2.23;;
4933;SDS011;2482;49.154;8.254;2023-09-19T04:10:04;5.23;;;1.40;;
4933;SDS011;2482;49.154;8.254;2023-09-19T04:12:32;6.07;;;2.37;;
4933;SDS011;2482;49.154;8.254;2023-09-19T04:14:59;2.30;;;1.70;;
4933;SDS011;2482;49.154;8.254;2023-09-19T04:17:26;4.00;;;2.50;;
4933;SDS011;2482;49.154;8.254;2023-09-19T04:19:53;7.80;;;1.60;;
4933;SDS011;2482;49.154;8.254;2023-09-19T04:22:20;4.00;;;2.23;;
4933;SDS011;2482;49.154;8.254;2023-09-19T04:24:47;6.13;;;1.73;;
4933;SDS011;2482;49.154;8.254;2023-09-19T04:27:14;3.13;;;2.00;;
4933;SDS011;2482;49.154;8.254;2023-09-19T04:29:41;5.00;;;2.00;;
4933;SDS011;2482;49.154;8.254;2023-09-19T04:32:09;10.10;;;2.20;;
4933;SDS011;2482;49.154;8.254;2023-09-19T04:34:36;4.50;;;2.17;;
4933;SDS011;2482;49.154;8.254;2023-09-19T04:37:04;5.07;;;1.83;;
4933;SDS011;2482;49.154;8.254;2023-09-19T04:39:31;4.73;;;1.83;;
4933;SDS011;2482;49.154;8.254;2023-09-19T04:42:00;4.23;;;2.00;;
4933;SDS011;2482;49.154;8.254;2023-09-19T04:44:27;4.60;;;2.30;;
4933;SDS011;2482;49.154;8.254;2023-09-19T04:46:54;5.57;;;2.13;;
4933;SDS011;2482;49.154;8.254;2023-09-19T04:49:22;2.87;;;1.83;;
4933;SDS011;2482;49.154;8.254;2023-09-19T04:51:49;3.40;;;1.87;;
4933;SDS011;2482;49.154;8.254;2023-09-19T04:54:16;6.20;;;2.40;;
4933;SDS011;2482;49.154;8.254;2023-09-19T04:56:44;3.20;;;2.00;;
4933;SDS011;2482;49.154;8.254;2023-09-19T04:59:11;4.90;;;2.00;;
4933;SDS011;2482;49.154;8.254;2023-09-19T05:01:38;7.53;;;2.30;;
4933;SDS011;2482;49.154;8.254;2023-09-19T05:04:06;6.77;;;2.80;;
4933;SDS011;2482;49.154;8.254;2023-09-19T05:06:33;7.60;;;2.20;;
4933;SDS011;2482;49.154;8.254;2023-09-19T05:09:00;7.17;;;2.60;;
4933;SDS011;2482;49.154;8.254;2023-09-19T05:11:27;2.17;;;1.60;;
4933;SDS011;2482;49.154;8.254;2023-09-19T05:13:56;3.93;;;2.20;;
4933;SDS011;2482;49.154;8.254;2023-09-19T05:16:28;4.77;;;1.80;;
4933;SDS011;2482;49.154;8.254;2023-09-19T05:18:58;6.73;;;2.10;;
4933;SDS011;2482;49.154;8.254;2023-09-19T05:21:26;3.30;;;2.13;;
4933;SDS011;2482;49.154;8.254;2023-09-19T05:23:55;2.97;;;2.00;;
4933;SDS011;2482;49.154;8.254;2023-09-19T05:26:22;2.77;;;1.93;;
4933;SDS011;2482;49.154;8.254;2023-09-19T05:28:49;4.10;;;2.00;;
4933;SDS011;2482;49.154;8.254;2023-09-19T05:31:16;3.13;;;2.03;;
4933;SDS011;2482;49.154;8.254;2023-09-19T05:33:43;2.63;;;2.00;;
4933;SDS011;2482;49.154;8.254;2023-09-19T05:36:10;5.27;;;2.10;;
4933;SDS011;2482;49.154;8.254;2023-09-19T05:38:38;4.33;;;2.17;;
4933;SDS011;2482;49.154;8.254;2023-09-19T05:41:07;2.80;;;1.63;;
4933;SDS011;2482;49.154;8.254;2023-09-19T05:43:36;2.80;;;1.97;;
4933;SDS011;2482;49.154;8.254;2023-09-19T05:46:04;5.20;;;2.43;;
4933;SDS011;2482;49.154;8.254;2023-09-19T05:48:31;5.67;;;1.97;;
4933;SDS011;2482;49.154;8.254;2023-09-19T05:50:58;3.10;;;1.80;;
4933;SDS011;2482;49.154;8.254;2023-09-19T05:53:27;3.93;;;1.60;;
4933;SDS011;2482;49.154;8.254;2023-09-19T05:55:54;3.30;;;2.37;;
4933;SDS011;2482;49.154;8.254;2023-09-19T05:58:22;3.30;;;1.87;;
4933;SDS011;2482;49.154;8.254;2023-09-19T06:00:49;4.20;;;1.80;;
4933;SDS011;2482;49.154;8.254;2023-09-19T06:03:16;6.17;;;2.37;;
4933;SDS011;2482;49.154;8.254;2023-09-19T06:05:45;4.80;;;2.43;;
4933;SDS011;2482;49.154;8.254;2023-09-19T06:08:15;5.27;;;2.30;;
4933;SDS011;2482;49.154;8.254;2023-09-19T06:10:42;2.53;;;2.07;;
4933;SDS011;2482;49.154;8.254;2023-09-19T06:13:10;7.30;;;1.63;;
4933;SDS011;2482;49.154;8.254;2023-09-19T06:15:37;2.40;;;1.83;;
4933;SDS011;2482;49.154;8.254;2023-09-19T06:18:05;6.53;;;2.40;;
4933;SDS011;2482;49.154;8.254;2023-09-19T06:20:41;3.70;;;2.07;;
4933;SDS011;2482;49.154;8.254;2023-09-19T06:23:11;10.03;;;2.73;;
4933;SDS011;2482;49.154;8.254;2023-09-19T06:25:38;3.70;;;2.20;;
4933;SDS011;2482;49.154;8.254;2023-09-19T06:28:07;3.90;;;2.00;;
4933;SDS011;2482;49.154;8.254;2023-09-19T06:30:36;6.13;;;2.10;;
4933;SDS011;2482;49.154;8.254;2023-09-19T06:33:06;5.93;;;2.20;;
4933;SDS011;2482;49.154;8.254;2023-09-19T06:35:33;4.33;;;1.90;;
4933;SDS011;2482;49.154;8.254;2023-09-19T06:38:04;4.57;;;2.10;;
4933;SDS011;2482;49.154;8.254;2023-09-19T06:40:33;4.80;;;2.33;;
4933;SDS011;2482;49.154;8.254;2023-09-19T06:43:01;3.83;;;1.93;;
4933;SDS011;2482;49.154;8.254;2023-09-19T06:45:28;4.20;;;2.20;;
4933;SDS011;2482;49.154;8.254;2023-09-19T06:47:55;13.90;;;2.63;;
4933;SDS011;2482;49.154;8.254;2023-09-19T06:50:25;2.77;;;1.60;;
4933;SDS011;2482;49.154;8.254;2023-09-19T06:52:53;4.80;;;2.20;;
4933;SDS011;2482;49.154;8.254;2023-09-19T06:55:24;6.73;;;1.80;;
4933;SDS011;2482;49.154;8.254;2023-09-19T06:57:54;4.90;;;1.80;;
4933;SDS011;2482;49.154;8.254;2023-09-19T07:00:22;4.80;;;2.03;;
4933;SDS011;2482;49.154;8.254;2023-09-19T07:05:28;5.43;;;1.90;;
4933;SDS011;2482;49.154;8.254;2023-09-19T07:07:55;3.30;;;1.80;;
4933;SDS011;2482;49.154;8.254;2023-09-19T07:10:22;2.57;;;1.70;;
4933;SDS011;2482;49.154;8.254;2023-09-19T07:13:00;3.10;;;1.70;;
4933;SDS011;2482;49.154;8.254;2023-09-19T07:15:31;3.73;;;1.90;;
4933;SDS011;2482;49.154;8.254;2023-09-19T07:18:06;2.80;;;1.37;;
4933;SDS011;2482;49.154;8.254;2023-09-19T07:20:37;6.90;;;1.70;;
4933;SDS011;2482;49.154;8.254;2023-09-19T07:23:05;2.90;;;1.53;;
4933;SDS011;2482;49.154;8.254;2023-09-19T07:25:32;5.87;;;1.73;;
4933;SDS011;2482;49.154;8.254;2023-09-19T07:28:02;6.17;;;1.67;;
4933;SDS011;2482;49.154;8.254;2023-09-19T07:30:29;7.80;;;1.70;;
4933;SDS011;2482;49.154;8.254;2023-09-19T07:32:57;2.20;;;1.60;;
4933;SDS011;2482;49.154;8.254;2023-09-19T07:35:24;5.80;;;1.63;;
4933;SDS011;2482;49.154;8.254;2023-09-19T07:37:52;5.40;;;1.83;;
4933;SDS011;2482;49.154;8.254;2023-09-19T07:40:19;3.83;;;2.00;;
4933;SDS011;2482;49.154;8.254;2023-09-19T07:42:50;3.93;;;1.30;;
4933;SDS011;2482;49.154;8.254;2023-09-19T07:45:17;4.77;;;1.87;;
4933;SDS011;2482;49.154;8.254;2023-09-19T07:47:47;4.17;;;1.80;;
4933;SDS011;2482;49.154;8.254;2023-09-19T07:50:17;2.07;;;1.60;;
4933;SDS011;2482;49.154;8.254;2023-09-19T07:52:46;7.60;;;1.90;;
4933;SDS011;2482;49.154;8.254;2023-09-19T07:55:15;4.83;;;1.77;;
4933;SDS011;2482;49.154;8.254;2023-09-19T07:57:43;3.77;;;1.67;;
4933;SDS011;2482;49.154;8.254;2023-09-19T08:00:10;2.17;;;1.40;;
4933;SDS011;2482;49.154;8.254;2023-09-19T08:02:42;2.90;;;1.50;;
4933;SDS011;2482;49.154;8.254;2023-09-19T08:05:11;7.30;;;1.93;;
4933;SDS011;2482;49.154;8.254;2023-09-19T08:07:42;6.00;;;1.73;;
4933;SDS011;2482;49.154;8.254;2023-09-19T08:10:16;2.40;;;1.67;;
4933;SDS011;2482;49.154;8.254;2023-09-19T08:12:45;3.83;;;1.57;;
4933;SDS011;2482;49.154;8.254;2023-09-19T08:15:18;4.83;;;1.50;;
4933;SDS011;2482;49.154;8.254;2023-09-19T08:17:47;4.40;;;1.60;;
4933;SDS011;2482;49.154;8.254;2023-09-19T08:20:15;4.20;;;1.50;;
4933;SDS011;2482;49.154;8.254;2023-09-19T08:22:46;6.00;;;1.83;;
4933;SDS011;2482;49.154;8.254;2023-09-19T08:25:15;6.50;;;1.43;;
4933;SDS011;2482;49.154;8.254;2023-09-19T08:27:45;6.70;;;1.80;;
4933;SDS011;2482;49.154;8.254;2023-09-19T08:30:16;3.10;;;1.67;;
4933;SDS011;2482;49.154;8.254;2023-09-19T08:32:46;3.87;;;1.53;;
4933;SDS011;2482;49.154;8.254;2023-09-19T08:35:14;2.90;;;1.57;;
4933;SDS011;2482;49.154;8.254;2023-09-19T08:37:44;3.10;;;1.97;;
4933;SDS011;2482;49.154;8.254;2023-09-19T08:40:14;2.30;;;1.57;;
4933;SDS011;2482;49.154;8.254;2023-09-19T08:42:51;6.73;;;1.63;;
4933;SDS011;2482;49.154;8.254;2023-09-19T08:45:23;4.23;;;1.40;;
4933;SDS011;2482;49.154;8.254;2023-09-19T08:48:44;3.67;;;1.60;;
4933;SDS011;2482;49.154;8.254;2023-09-19T08:51:02;6.00;;;1.77;;
4933;SDS011;2482;49.154;8.254;2023-09-19T08:53:46;6.50;;;1.47;;
4933;SDS011;2482;49.154;8.254;2023-09-19T08:56:19;5.13;;;1.57;;
4933;SDS011;2482;49.154;8.254;2023-09-19T08:59:22;5.93;;;1.77;;
4933;SDS011;2482;49.154;8.254;2023-09-19T09:01:43;3.47;;;1.73;;
4933;SDS011;2482;49.154;8.254;2023-09-19T09:04:12;4.00;;;1.47;;
4933;SDS011;2482;49.154;8.254;2023-09-19T09:06:41;2.93;;;1.40;;
4933;SDS011;2482;49.154;8.254;2023-09-19T09:09:11;4.77;;;1.77;;
4933;SDS011;2482;49.154;8.254;2023-09-19T09:11:38;3.37;;;1.50;;
4933;SDS011;2482;49.154;8.254;2023-09-19T09:14:09;6.87;;;1.50;;
4933;SDS011;2482;49.154;8.254;2023-09-19T09:16:37;3.03;;;1.57;;
4933;SDS011;2482;49.154;8.254;2023-09-19T09:19:05;6.33;;;1.73;;
4933;SDS011;2482;49.154;8.254;2023-09-19T09:21:32;3.60;;;1.23;;
4933;SDS011;2482;49.154;8.254;2023-09-19T09:26:57;4.43;;;1.60;;
4933;SDS011;2482;49.154;8.254;2023-09-19T09:29:58;5.20;;;1.87;;
4933;SDS011;2482;49.154;8.254;2023-09-19T09:35:01;1.97;;;1.57;;
4933;SDS011;2482;49.154;8.254;2023-09-19T09:37:36;4.73;;;1.50;;
4933;SDS011;2482;49.154;8.254;2023-09-19T09:40:05;2.17;;;1.70;;
4933;SDS011;2482;49.154;8.254;2023-09-19T09:42:41;4.33;;;2.10;;
4933;SDS011;2482;49.154;8.254;2023-09-19T09:48:00;5.03;;;1.87;;
4933;SDS011;2482;49.154;8.254;2023-09-19T09:50:31;9.93;;;1.80;;
4933;SDS011;2482;49.154;8.254;2023-09-19T09:53:30;8.13;;;1.27;;
4933;SDS011;2482;49.154;8.254;2023-09-19T09:58:50;2.60;;;1.20;;
4933;SDS011;2482;49.154;8.254;2023-09-19T10:01:25;7.10;;;1.60;;
4933;SDS011;2482;49.154;8.254;2023-09-19T10:03:58;2.60;;;1.13;;
4933;SDS011;2482;49.154;8.254;2023-09-19T10:06:27;4.63;;;1.50;;
4933;SDS011;2482;49.154;8.254;2023-09-19T10:09:13;3.80;;;2.10;;
4933;SDS011;2482;49.154;8.254;2023-09-19T10:11:44;2.53;;;1.23;;
4933;SDS011;2482;49.154;8.254;2023-09-19T10:14:25;5.93;;;1.20;;
4933;SDS011;2482;49.154;8.254;2023-09-19T10:16:59;4.27;;;1.53;;
4933;SDS011;2482;49.154;8.254;2023-09-19T10:19:40;9.90;;;1.87;;
4933;SDS011;2482;49.154;8.254;2023-09-19T10:22:13;3.20;;;1.20;;
4933;SDS011;2482;49.154;8.254;2023-09-19T10:24:42;4.73;;;1.83;;
4933;SDS011;2482;49.154;8.254;2023-09-19T10:27:27;3.40;;;1.40;;
4933;SDS011;2482;49.154;8.254;2023-09-19T10:29:56;3.93;;;1.20;;
4933;SDS011;2482;49.154;8.254;2023-09-19T10:32:25;2.40;;;1.30;;
4933;SDS011;2482;49.154;8.254;2023-09-19T10:35:00;2.03;;;1.30;;
4933;SDS011;2482;49.154;8.254;2023-09-19T10:37:31;1.73;;;1.10;;
4933;SDS011;2482;49.154;8.254;2023-09-19T10:40:00;5.57;;;1.27;;
4933;SDS011;2482;49.154;8.254;2023-09-19T10:42:27;3.00;;;1.47;;
4933;SDS011;2482;49.154;8.254;2023-09-19T10:44:58;3.97;;;1.30;;
4933;SDS011;2482;49.154;8.254;2023-09-19T10:47:26;4.43;;;1.27;;
4933;SDS011;2482;49.154;8.254;2023-09-19T10:49:53;5.70;;;1.30;;
4933;SDS011;2482;49.154;8.254;2023-09-19T10:52:23;3.07;;;1.40;;
4933;SDS011;2482;49.154;8.254;2023-09-19T10:54:53;4.10;;;1.30;;
4933;SDS011;2482;49.154;8.254;2023-09-19T10:57:24;3.43;;;1.50;;
4933;SDS011;2482;49.154;8.254;2023-09-19T11:00:01;6.53;;;3.00;;
4933;SDS011;2482;49.154;8.254;2023-09-19T11:05:42;4.80;;;1.50;;
4933;SDS011;2482;49.154;8.254;2023-09-19T11:08:10;10.93;;;1.80;;
4933;SDS011;2482;49.154;8.254;2023-09-19T11:10:51;3.67;;;1.37;;
4933;SDS011;2482;49.154;8.254;2023-09-19T11:13:28;2.70;;;1.30;;
4933;SDS011;2482;49.154;8.254;2023-09-19T11:16:04;2.10;;;1.27;;
4933;SDS011;2482;49.154;8.254;2023-09-19T11:24:32;4.40;;;1.40;;
4933;SDS011;2482;49.154;8.254;2023-09-19T11:27:18;3.37;;;1.57;;
4933;SDS011;2482;49.154;8.254;2023-09-19T11:29:46;6.17;;;1.40;;
4933;SDS011;2482;49.154;8.254;2023-09-19T11:32:15;1.70;;;1.10;;
4933;SDS011;2482;49.154;8.254;2023-09-19T11:34:43;4.03;;;1.20;;
4933;SDS011;2482;49.154;8.254;2023-09-19T11:42:49;5.77;;;1.20;;
4933;SDS011;2482;49.154;8.254;2023-09-19T11:48:18;6.60;;;1.77;;
4933;SDS011;2482;49.154;8.254;2023-09-19T11:50:46;3.20;;;1.40;;
4933;SDS011;2482;49.154;8.254;2023-09-19T11:53:14;5.20;;;1.30;;
4933;SDS011;2482;49.154;8.254;2023-09-19T11:55:42;4.47;;;1.47;;
4933;SDS011;2482;49.154;8.254;2023-09-19T11:58:10;1.73;;;1.10;;
4933;SDS011;2482;49.154;8.254;2023-09-19T12:00:45;2.70;;;1.30;;
4933;SDS011;2482;49.154;8.254;2023-09-19T12:03:14;4.80;;;1.57;;
4933;SDS011;2482;49.154;8.254;2023-09-19T12:05:45;4.13;;;1.40;;
4933;SDS011;2482;49.154;8.254;2023-09-19T12:08:12;2.30;;;1.20;;
4933;SDS011;2482;49.154;8.254;2023-09-19T12:10:50;7.20;;;1.57;;
4933;SDS011;2482;49.154;8.254;2023-09-19T12:13:20;3.73;;;1.33;;
4933;SDS011;2482;49.154;8.254;2023-09-19T12:15:48;3.40;;;1.40;;
4933;SDS011;2482;49.154;8.254;2023-09-19T12:18:28;2.60;;;1.10;;
4933;SDS011;2482;49.154;8.254;2023-09-19T12:20:56;2.70;;;1.30;;
4933;SDS011;2482;49.154;8.254;2023-09-19T12:23:25;1.63;;;1.17;;
4933;SDS011;2482;49.154;8.254;2023-09-19T12:25:52;7.50;;;1.60;;
4933;SDS011;2482;49.154;8.254;2023-09-19T12:28:27;2.07;;;1.10;;
4933;SDS011;2482;49.154;8.254;2023-09-19T12:31:06;6.87;;;1.50;;
4933;SDS011;2482;49.154;8.254;2023-09-19T12:33:34;3.37;;;1.40;;
4933;SDS011;2482;49.154;8.254;2023-09-19T12:36:19;3.60;;;1.40;;
4933;SDS011;2482;49.154;8.254;2023-09-19T12:38:59;2.30;;;1.13;;
4933;SDS011;2482;49.154;8.254;2023-09-19T12:41:26;4.50;;;3.00;;
4933;SDS011;2482;49.154;8.254;2023-09-19T12:43:53;5.70;;;3.63;;
4933;SDS011;2482;49.154;8.254;2023-09-19T12:46:21;2.93;;;1.10;;
4933;SDS011;2482;49.154;8.254;2023-09-19T12:51:48;2.60;;;1.43;;
4933;SDS011;2482;49.154;8.254;2023-09-19T12:54:15;1.60;;;0.93;;
4933;SDS011;2482;49.154;8.254;2023-09-19T12:56:46;3.40;;;1.40;;
4933;SDS011;2482;49.154;8.254;2023-09-19T12:59:15;2.50;;;1.20;;
4933;SDS011;2482;49.154;8.254;2023-09-19T13:01:43;3.13;;;1.60;;
4933;SDS011;2482;49.154;8.254;2023-09-19T13:04:13;1.63;;;1.00;;
4933;SDS011;2482;49.154;8.254;2023-09-19T13:06:54;3.43;;;1.60;;
4933;SDS011;2482;49.154;8.254;2023-09-19T13:09:24;3.67;;;1.30;;
4933;SDS011;2482;49.154;8.254;2023-09-19T13:11:58;8.40;;;1.20;;
4933;SDS011;2482;49.154;8.254;2023-09-19T13:14:26;2.40;;;1.07;;
4933;SDS011;2482;49.154;8.254;2023-09-19T13:19:37;1.67;;;1.10;;
4933;SDS011;2482;49.154;8.254;2023-09-19T13:22:37;2.97;;;0.93;;
4933;SDS011;2482;49.154;8.254;2023-09-19T13:25:11;2.77;;;1.23;;
4933;SDS011;2482;49.154;8.254;2023-09-19T13:27:42;3.00;;;1.13;;
4933;SDS011;2482;49.154;8.254;2023-09-19T13:30:30;4.10;;;1.03;;
4933;SDS011;2482;49.154;8.254;2023-09-19T13:33:08;4.40;;;1.10;;
4933;SDS011;2482;49.154;8.254;2023-09-19T13:35:38;3.90;;;1.30;;
4933;SDS011;2482;49.154;8.254;2023-09-19T13:38:08;7.47;;;1.30;;
4933;SDS011;2482;49.154;8.254;2023-09-19T13:40:38;2.10;;;1.03;;
4933;SDS011;2482;49.154;8.254;2023-09-19T13:43:08;2.27;;;1.23;;
4933;SDS011;2482;49.154;8.254;2023-09-19T13:45:37;1.73;;;0.93;;
4933;SDS011;2482;49.154;8.254;2023-09-19T13:48:04;3.00;;;1.73;;
4933;SDS011;2482;49.154;8.254;2023-09-19T13:50:31;2.33;;;0.87;;
4933;SDS011;2482;49.154;8.254;2023-09-19T13:52:58;2.30;;;0.93;;
4933;SDS011;2482;49.154;8.254;2023-09-19T13:55:27;1.83;;;1.10;;
4933;SDS011;2482;49.154;8.254;2023-09-19T13:57:54;1.33;;;1.00;;
4933;SDS011;2482;49.154;8.254;2023-09-19T14:00:22;2.27;;;1.00;;
4933;SDS011;2482;49.154;8.254;2023-09-19T14:02:49;3.03;;;1.20;;
4933;SDS011;2482;49.154;8.254;2023-09-19T14:05:18;2.40;;;1.03;;
4933;SDS011;2482;49.154;8.254;2023-09-19T14:07:47;1.67;;;0.97;;
4933;SDS011;2482;49.154;8.254;2023-09-19T14:10:15;1.73;;;1.07;;
4933;SDS011;2482;49.154;8.254;2023-09-19T14:12:44;1.67;;;1.07;;
4933;SDS011;2482;49.154;8.254;2023-09-19T14:15:11;3.73;;;1.17;;
4933;SDS011;2482;49.154;8.254;2023-09-19T14:17:39;3.23;;;1.13;;
4933;SDS011;2482;49.154;8.254;2023-09-19T14:20:13;3.53;;;1.10;;
4933;SDS011;2482;49.154;8.254;2023-09-19T14:22:42;1.73;;;0.90;;
4933;SDS011;2482;49.154;8.254;2023-09-19T14:25:09;2.97;;;1.00;;
4933;SDS011;2482;49.154;8.254;2023-09-19T14:27:36;1.53;;;0.80;;
4933;SDS011;2482;49.154;8.254;2023-09-19T14:30:03;3.90;;;1.00;;
4933;SDS011;2482;49.154;8.254;2023-09-19T14:32:32;2.10;;;1.00;;
4933;SDS011;2482;49.154;8.254;2023-09-19T14:34:59;2.87;;;1.10;;
4933;SDS011;2482;49.154;8.254;2023-09-19T14:37:26;3.03;;;1.13;;
4933;SDS011;2482;49.154;8.254;2023-09-19T14:39:54;1.67;;;0.90;;
4933;SDS011;2482;49.154;8.254;2023-09-19T14:42:22;2.07;;;0.90;;
4933;SDS011;2482;49.154;8.254;2023-09-19T14:44:49;5.43;;;0.97;;
4933;SDS011;2482;49.154;8.254;2023-09-19T14:47:16;2.00;;;0.83;;
4933;SDS011;2482;49.154;8.254;2023-09-19T14:49:43;1.57;;;0.93;;
4933;SDS011;2482;49.154;8.254;2023-09-19T14:52:39;1.90;;;1.23;;
4933;SDS011;2482;49.154;8.254;2023-09-19T14:55:06;4.60;;;0.97;;
4933;SDS011;2482;49.154;8.254;2023-09-19T14:57:35;2.83;;;0.90;;
4933;SDS011;2482;49.154;8.254;2023-09-19T15:00:06;2.83;;;1.10;;
4933;SDS011;2482;49.154;8.254;2023-09-19T15:02:38;3.10;;;1.27;;
4933;SDS011;2482;49.154;8.254;2023-09-19T15:05:12;1.33;;;0.80;;
4933;SDS011;2482;49.154;8.254;2023-09-19T15:07:40;2.20;;;1.10;;
4933;SDS011;2482;49.154;8.254;2023-09-19T15:10:07;2.23;;;1.03;;
4933;SDS011;2482;49.154;8.254;2023-09-19T15:12:36;1.47;;;0.93;;
4933;SDS011;2482;49.154;8.254;2023-09-19T15:15:04;4.07;;;1.00;;
4933;SDS011;2482;49.154;8.254;2023-09-19T15:17:35;2.10;;;1.00;;
4933;SDS011;2482;49.154;8.254;2023-09-19T15:20:03;1.30;;;1.00;;
4933;SDS011;2482;49.154;8.254;2023-09-19T15:22:35;4.63;;;1.47;;
4933;SDS011;2482;49.154;8.254;2023-09-19T15:25:03;2.67;;;1.23;;
4933;SDS011;2482;49.154;8.254;2023-09-19T15:27:31;8.63;;;1.00;;
4933;SDS011;2482;49.154;8.254;2023-09-19T15:29:59;1.63;;;0.90;;
4933;SDS011;2482;49.154;8.254;2023-09-19T15:32:31;1.20;;;0.90;;
4933;SDS011;2482;49.154;8.254;2023-09-19T15:34:58;2.47;;;1.20;;
4933;SDS011;2482;49.154;8.254;2023-09-19T15:37:25;1.50;;;0.93;;
4933;SDS011;2482;49.154;8.254;2023-09-19T15:39:53;2.23;;;1.20;;
4933;SDS011;2482;49.154;8.254;2023-09-19T15:42:19;2.13;;;1.20;;
4933;SDS011;2482;49.154;8.254;2023-09-19T15:44:46;1.40;;;0.90;;
4933;SDS011;2482;49.154;8.254;2023-09-19T15:47:16;2.60;;;1.03;;
4933;SDS011;2482;49.154;8.254;2023-09-19T15:49:43;4.67;;;1.03;;
4933;SDS011;2482;49.154;8.254;2023-09-19T15:52:12;3.23;;;1.20;;
4933;SDS011;2482;49.154;8.254;2023-09-19T15:54:38;1.30;;;0.77;;
4933;SDS011;2482;49.154;8.254;2023-09-19T15:57:10;2.47;;;0.93;;
4933;SDS011;2482;49.154;8.254;2023-09-19T15:59:39;2.20;;;1.20;;
4933;SDS011;2482;49.154;8.254;2023-09-19T16:02:06;2.90;;;0.87;;
4933;SDS011;2482;49.154;8.254;2023-09-19T16:04:33;1.60;;;0.90;;
4933;SDS011;2482;49.154;8.254;2023-09-19T16:07:00;2.50;;;0.93;;
4933;SDS011;2482;49.154;8.254;2023-09-19T16:09:28;2.30;;;1.00;;
4933;SDS011;2482;49.154;8.254;2023-09-19T16:11:55;2.37;;;0.90;;
4933;SDS011;2482;49.154;8.254;2023-09-19T16:14:22;4.50;;;1.00;;
4933;SDS011;2482;49.154;8.254;2023-09-19T16:16:50;2.67;;;1.10;;
4933;SDS011;2482;49.154;8.254;2023-09-19T16:19:18;2.80;;;0.90;;
4933;SDS011;2482;49.154;8.254;2023-09-19T16:21:45;1.40;;;1.00;;
4933;SDS011;2482;49.154;8.254;2023-09-19T16:24:12;2.47;;;1.20;;
4933;SDS011;2482;49.154;8.254;2023-09-19T16:26:39;3.30;;;1.03;;
4933;SDS011;2482;49.154;8.254;2023-09-19T16:29:06;1.67;;;1.00;;
4933;SDS011;2482;49.154;8.254;2023-09-19T16:31:33;1.70;;;0.87;;